sensor_id;sensor_type;location;lat;lon;timestamp;temperature;humidity
68648;SHT31;55632;51.962;16.116;2023-05-16T00:00:01;10.83;89.88
68648;SHT31;55632;51.962;16.116;2023-05-16T00:05:06;10.76;89.90
68648;SHT31;55632;51.962;16.116;2023-05-16T00:10:15;10.75;89.89
68648;SHT31;55632;51.962;16.116;2023-05-16T00:15:17;10.71;89.95
68648;SHT31;55632;51.962;16.116;2023-05-16T00:20:19;10.68;90.01
68648;SHT31;55632;51.962;16.116;2023-05-16T00:25:22;10.65;90.03
68648;SHT31;55632;51.962;16.116;2023-05-16T00:30:23;10.64;90.04
68648;SHT31;55632;51.962;16.116;2023-05-16T00:35:25;10.62;90.06
68648;SHT31;55632;51.962;16.116;2023-05-16T00:40:26;10.61;90.11
68648;SHT31;55632;51.962;16.116;2023-05-16T00:45:27;10.57;90.09
68648;SHT31;55632;51.962;16.116;2023-05-16T00:50:29;10.58;90.09
68648;SHT31;55632;51.962;16.116;2023-05-16T00:55:31;10.55;90.08
68648;SHT31;55632;51.962;16.116;2023-05-16T01:00:32;10.53;90.10
68648;SHT31;55632;51.962;16.116;2023-05-16T01:05:33;10.50;90.12
68648;SHT31;55632;51.962;16.116;2023-05-16T01:10:52;10.44;90.12
68648;SHT31;55632;51.962;16.116;2023-05-16T01:16:09;10.38;90.16
68648;SHT31;55632;51.962;16.116;2023-05-16T01:21:27;10.36;90.22
68648;SHT31;55632;51.962;16.116;2023-05-16T01:26:35;10.34;90.30
68648;SHT31;55632;51.962;16.116;2023-05-16T01:31:36;10.33;90.44
68648;SHT31;55632;51.962;16.116;2023-05-16T01:36:47;10.33;90.55
68648;SHT31;55632;51.962;16.116;2023-05-16T01:42:09;10.32;90.59
68648;SHT31;55632;51.962;16.116;2023-05-16T01:47:13;10.32;90.64
68648;SHT31;55632;51.962;16.116;2023-05-16T01:52:25;10.27;90.67
68648;SHT31;55632;51.962;16.116;2023-05-16T01:57:28;10.23;90.67
68648;SHT31;55632;51.962;16.116;2023-05-16T02:02:30;10.19;90.70
68648;SHT31;55632;51.962;16.116;2023-05-16T02:07:31;10.13;90.70
68648;SHT31;55632;51.962;16.116;2023-05-16T02:12:32;10.08;90.68
68648;SHT31;55632;51.962;16.116;2023-05-16T02:17:33;10.02;90.72
68648;SHT31;55632;51.962;16.116;2023-05-16T02:22:35;9.93;90.77
68648;SHT31;55632;51.962;16.116;2023-05-16T02:27:36;9.88;90.83
68648;SHT31;55632;51.962;16.116;2023-05-16T02:32:40;9.86;90.81
68648;SHT31;55632;51.962;16.116;2023-05-16T02:37:44;9.74;90.66
68648;SHT31;55632;51.962;16.116;2023-05-16T02:42:45;9.67;90.71
68648;SHT31;55632;51.962;16.116;2023-05-16T02:47:46;9.64;90.85
68648;SHT31;55632;51.962;16.116;2023-05-16T02:52:47;9.57;90.86
68648;SHT31;55632;51.962;16.116;2023-05-16T02:57:48;9.52;90.87
68648;SHT31;55632;51.962;16.116;2023-05-16T03:02:50;9.43;90.66
68648;SHT31;55632;51.962;16.116;2023-05-16T03:07:51;9.33;90.39
68648;SHT31;55632;51.962;16.116;2023-05-16T03:12:52;9.19;90.41
68648;SHT31;55632;51.962;16.116;2023-05-16T03:17:53;9.08;90.57
68648;SHT31;55632;51.962;16.116;2023-05-16T03:22:53;9.11;90.88
68648;SHT31;55632;51.962;16.116;2023-05-16T03:27:54;9.12;91.06
68648;SHT31;55632;51.962;16.116;2023-05-16T03:32:56;9.19;91.13
68648;SHT31;55632;51.962;16.116;2023-05-16T03:37:57;9.23;91.23
68648;SHT31;55632;51.962;16.116;2023-05-16T03:42:58;9.40;91.67
68648;SHT31;55632;51.962;16.116;2023-05-16T03:47:59;9.81;91.86
68648;SHT31;55632;51.962;16.116;2023-05-16T03:53:00;10.21;91.80
68648;SHT31;55632;51.962;16.116;2023-05-16T03:58:01;10.67;91.67
68648;SHT31;55632;51.962;16.116;2023-05-16T04:03:02;11.10;91.28
68648;SHT31;55632;51.962;16.116;2023-05-16T04:08:03;11.54;90.85
68648;SHT31;55632;51.962;16.116;2023-05-16T04:13:04;11.96;90.29
68648;SHT31;55632;51.962;16.116;2023-05-16T04:18:05;12.35;89.57
68648;SHT31;55632;51.962;16.116;2023-05-16T04:23:06;12.76;88.88
68648;SHT31;55632;51.962;16.116;2023-05-16T04:28:08;13.14;88.01
68648;SHT31;55632;51.962;16.116;2023-05-16T04:33:09;13.47;87.04
68648;SHT31;55632;51.962;16.116;2023-05-16T04:38:09;13.79;86.31
68648;SHT31;55632;51.962;16.116;2023-05-16T04:43:11;14.17;85.62
68648;SHT31;55632;51.962;16.116;2023-05-16T04:48:12;14.53;84.74
68648;SHT31;55632;51.962;16.116;2023-05-16T04:53:13;14.94;83.95
68648;SHT31;55632;51.962;16.116;2023-05-16T04:58:15;15.31;82.87
68648;SHT31;55632;51.962;16.116;2023-05-16T05:03:19;15.63;81.99
68648;SHT31;55632;51.962;16.116;2023-05-16T05:08:23;15.79;81.24
68648;SHT31;55632;51.962;16.116;2023-05-16T05:13:28;16.07;80.77
68648;SHT31;55632;51.962;16.116;2023-05-16T05:18:36;16.28;79.47
68648;SHT31;55632;51.962;16.116;2023-05-16T05:23:42;16.46;79.10
68648;SHT31;55632;51.962;16.116;2023-05-16T05:28:44;16.60;78.38
68648;SHT31;55632;51.962;16.116;2023-05-16T05:33:48;16.76;77.68
68648;SHT31;55632;51.962;16.116;2023-05-16T05:38:56;16.92;76.53
68648;SHT31;55632;51.962;16.116;2023-05-16T05:43:58;17.00;76.14
68648;SHT31;55632;51.962;16.116;2023-05-16T05:49:01;17.04;75.29
68648;SHT31;55632;51.962;16.116;2023-05-16T05:54:19;17.12;75.46
68648;SHT31;55632;51.962;16.116;2023-05-16T06:00:26;17.07;74.47
68648;SHT31;55632;51.962;16.116;2023-05-16T06:05:52;16.88;74.41
68648;SHT31;55632;51.962;16.116;2023-05-16T06:11:42;16.98;74.91
68648;SHT31;55632;51.962;16.116;2023-05-16T06:16:49;17.07;73.64
68648;SHT31;55632;51.962;16.116;2023-05-16T06:22:01;16.91;73.42
68648;SHT31;55632;51.962;16.116;2023-05-16T06:27:55;16.84;74.06
68648;SHT31;55632;51.962;16.116;2023-05-16T06:33:07;17.00;73.87
68648;SHT31;55632;51.962;16.116;2023-05-16T06:38:20;17.10;73.55
68648;SHT31;55632;51.962;16.116;2023-05-16T06:43:32;17.12;73.22
68648;SHT31;55632;51.962;16.116;2023-05-16T06:49:01;16.98;73.14
68648;SHT31;55632;51.962;16.116;2023-05-16T06:54:10;16.90;73.16
68648;SHT31;55632;51.962;16.116;2023-05-16T06:59:25;16.91;73.45
68648;SHT31;55632;51.962;16.116;2023-05-16T07:04:28;16.85;73.35
68648;SHT31;55632;51.962;16.116;2023-05-16T07:09:34;16.84;73.74
68648;SHT31;55632;51.962;16.116;2023-05-16T07:14:37;16.80;73.58
68648;SHT31;55632;51.962;16.116;2023-05-16T07:19:43;16.91;73.57
68648;SHT31;55632;51.962;16.116;2023-05-16T07:24:54;17.12;73.61
68648;SHT31;55632;51.962;16.116;2023-05-16T07:30:05;17.08;73.05
68648;SHT31;55632;51.962;16.116;2023-05-16T07:35:11;17.10;73.10
68648;SHT31;55632;51.962;16.116;2023-05-16T07:40:13;17.03;73.19
68648;SHT31;55632;51.962;16.116;2023-05-16T07:45:18;16.87;73.05
68648;SHT31;55632;51.962;16.116;2023-05-16T07:50:22;16.63;73.32
68648;SHT31;55632;51.962;16.116;2023-05-16T07:55:26;16.38;73.66
68648;SHT31;55632;51.962;16.116;2023-05-16T08:00:29;16.12;74.04
68648;SHT31;55632;51.962;16.116;2023-05-16T08:05:33;15.93;74.59
68648;SHT31;55632;51.962;16.116;2023-05-16T08:10:36;15.82;74.99
68648;SHT31;55632;51.962;16.116;2023-05-16T08:15:44;15.82;74.91
68648;SHT31;55632;51.962;16.116;2023-05-16T08:20:47;15.80;74.80
68648;SHT31;55632;51.962;16.116;2023-05-16T08:25:50;15.80;74.96
68648;SHT31;55632;51.962;16.116;2023-05-16T08:30:55;15.87;75.36
68648;SHT31;55632;51.962;16.116;2023-05-16T08:35:59;16.01;75.51
68648;SHT31;55632;51.962;16.116;2023-05-16T08:41:05;16.05;75.15
68648;SHT31;55632;51.962;16.116;2023-05-16T08:46:08;16.11;75.06
68648;SHT31;55632;51.962;16.116;2023-05-16T08:51:11;16.08;74.62
68648;SHT31;55632;51.962;16.116;2023-05-16T08:56:16;16.07;74.79
68648;SHT31;55632;51.962;16.116;2023-05-16T09:01:19;16.04;74.75
68648;SHT31;55632;51.962;16.116;2023-05-16T09:06:21;15.97;74.98
68648;SHT31;55632;51.962;16.116;2023-05-16T09:11:24;15.93;75.19
68648;SHT31;55632;51.962;16.116;2023-05-16T09:16:26;15.94;75.43
68648;SHT31;55632;51.962;16.116;2023-05-16T09:21:33;15.90;75.36
68648;SHT31;55632;51.962;16.116;2023-05-16T09:26:38;15.74;75.52
68648;SHT31;55632;51.962;16.116;2023-05-16T09:31:41;15.53;75.78
68648;SHT31;55632;51.962;16.116;2023-05-16T09:36:42;15.39;76.01
68648;SHT31;55632;51.962;16.116;2023-05-16T09:41:44;15.32;76.45
68648;SHT31;55632;51.962;16.116;2023-05-16T09:46:46;15.32;76.56
68648;SHT31;55632;51.962;16.116;2023-05-16T09:51:50;15.39;76.54
68648;SHT31;55632;51.962;16.116;2023-05-16T09:56:54;15.49;76.38
68648;SHT31;55632;51.962;16.116;2023-05-16T10:01:58;15.50;75.73
68648;SHT31;55632;51.962;16.116;2023-05-16T10:07:07;15.49;75.72
68648;SHT31;55632;51.962;16.116;2023-05-16T10:18:30;15.31;75.46
68648;SHT31;55632;51.962;16.116;2023-05-16T10:23:35;15.20;75.40
68648;SHT31;55632;51.962;16.116;2023-05-16T10:29:00;15.20;75.64
68648;SHT31;55632;51.962;16.116;2023-05-16T10:34:06;15.21;75.89
68648;SHT31;55632;51.962;16.116;2023-05-16T10:39:09;15.30;75.85
68648;SHT31;55632;51.962;16.116;2023-05-16T10:44:15;15.36;75.92
68648;SHT31;55632;51.962;16.116;2023-05-16T10:49:21;15.41;75.61
68648;SHT31;55632;51.962;16.116;2023-05-16T10:54:33;15.39;75.25
68648;SHT31;55632;51.962;16.116;2023-05-16T10:59:39;15.35;75.49
68648;SHT31;55632;51.962;16.116;2023-05-16T11:05:11;15.43;75.30
68648;SHT31;55632;51.962;16.116;2023-05-16T11:10:16;15.52;75.38
68648;SHT31;55632;51.962;16.116;2023-05-16T11:15:23;15.60;75.22
68648;SHT31;55632;51.962;16.116;2023-05-16T11:20:33;15.69;74.88
68648;SHT31;55632;51.962;16.116;2023-05-16T11:25:35;15.71;75.13
68648;SHT31;55632;51.962;16.116;2023-05-16T11:30:47;15.77;74.39
68648;SHT31;55632;51.962;16.116;2023-05-16T11:36:55;15.74;74.01
68648;SHT31;55632;51.962;16.116;2023-05-16T11:42:01;15.74;74.07
68648;SHT31;55632;51.962;16.116;2023-05-16T11:47:11;15.62;73.90
68648;SHT31;55632;51.962;16.116;2023-05-16T11:52:13;15.55;73.88
68648;SHT31;55632;51.962;16.116;2023-05-16T11:57:16;15.49;73.83
68648;SHT31;55632;51.962;16.116;2023-05-16T12:02:21;15.39;73.68
68648;SHT31;55632;51.962;16.116;2023-05-16T12:07:28;15.32;73.80
68648;SHT31;55632;51.962;16.116;2023-05-16T12:12:39;15.30;74.10
68648;SHT31;55632;51.962;16.116;2023-05-16T12:17:54;15.21;73.84
68648;SHT31;55632;51.962;16.116;2023-05-16T12:23:01;15.14;74.07
68648;SHT31;55632;51.962;16.116;2023-05-16T12:28:10;15.07;74.00
68648;SHT31;55632;51.962;16.116;2023-05-16T12:33:15;15.07;74.07
68648;SHT31;55632;51.962;16.116;2023-05-16T12:38:20;15.06;73.97
68648;SHT31;55632;51.962;16.116;2023-05-16T12:43:22;15.11;74.04
68648;SHT31;55632;51.962;16.116;2023-05-16T12:48:31;15.22;73.94
68648;SHT31;55632;51.962;16.116;2023-05-16T12:53:41;15.36;74.02
68648;SHT31;55632;51.962;16.116;2023-05-16T12:58:56;15.46;73.44
68648;SHT31;55632;51.962;16.116;2023-05-16T13:04:24;15.56;73.24
68648;SHT31;55632;51.962;16.116;2023-05-16T13:09:32;15.67;72.97
68648;SHT31;55632;51.962;16.116;2023-05-16T13:20:12;15.62;72.32
68648;SHT31;55632;51.962;16.116;2023-05-16T13:25:14;15.56;72.75
68648;SHT31;55632;51.962;16.116;2023-05-16T13:30:15;15.53;72.73
68648;SHT31;55632;51.962;16.116;2023-05-16T13:35:17;15.55;72.81
68648;SHT31;55632;51.962;16.116;2023-05-16T13:40:18;15.55;72.79
68648;SHT31;55632;51.962;16.116;2023-05-16T13:45:19;15.49;72.81
68648;SHT31;55632;51.962;16.116;2023-05-16T13:50:22;15.45;72.98
68648;SHT31;55632;51.962;16.116;2023-05-16T13:55:23;15.45;73.03
68648;SHT31;55632;51.962;16.116;2023-05-16T14:00:23;15.48;73.05
68648;SHT31;55632;51.962;16.116;2023-05-16T14:05:24;15.42;73.17
68648;SHT31;55632;51.962;16.116;2023-05-16T14:10:25;15.41;73.17
68648;SHT31;55632;51.962;16.116;2023-05-16T14:15:28;15.30;73.14
68648;SHT31;55632;51.962;16.116;2023-05-16T14:20:30;15.08;73.43
68648;SHT31;55632;51.962;16.116;2023-05-16T14:25:31;14.90;73.68
68648;SHT31;55632;51.962;16.116;2023-05-16T14:30:33;14.76;74.03
68648;SHT31;55632;51.962;16.116;2023-05-16T14:35:35;14.62;74.39
68648;SHT31;55632;51.962;16.116;2023-05-16T14:40:38;14.55;74.90
68648;SHT31;55632;51.962;16.116;2023-05-16T14:45:39;14.48;75.27
68648;SHT31;55632;51.962;16.116;2023-05-16T14:50:41;14.41;75.50
68648;SHT31;55632;51.962;16.116;2023-05-16T14:55:42;14.35;75.75
68648;SHT31;55632;51.962;16.116;2023-05-16T15:00:44;14.28;76.00
68648;SHT31;55632;51.962;16.116;2023-05-16T15:05:45;14.25;76.29
68648;SHT31;55632;51.962;16.116;2023-05-16T15:10:45;14.22;76.53
68648;SHT31;55632;51.962;16.116;2023-05-16T15:15:46;14.17;76.71
68648;SHT31;55632;51.962;16.116;2023-05-16T15:20:47;14.11;76.95
68648;SHT31;55632;51.962;16.116;2023-05-16T15:25:51;14.11;77.21
68648;SHT31;55632;51.962;16.116;2023-05-16T15:30:53;14.11;77.38
68648;SHT31;55632;51.962;16.116;2023-05-16T15:35:56;14.11;77.37
68648;SHT31;55632;51.962;16.116;2023-05-16T15:40:59;14.06;77.35
68648;SHT31;55632;51.962;16.116;2023-05-16T15:46:01;14.03;77.47
68648;SHT31;55632;51.962;16.116;2023-05-16T15:51:03;13.94;77.70
68648;SHT31;55632;51.962;16.116;2023-05-16T15:56:04;13.90;77.75
68648;SHT31;55632;51.962;16.116;2023-05-16T16:01:08;13.84;77.51
68648;SHT31;55632;51.962;16.116;2023-05-16T16:06:09;13.79;77.33
68648;SHT31;55632;51.962;16.116;2023-05-16T16:11:10;13.75;77.36
68648;SHT31;55632;51.962;16.116;2023-05-16T16:16:10;13.68;77.46
68648;SHT31;55632;51.962;16.116;2023-05-16T16:21:12;13.63;77.53
68648;SHT31;55632;51.962;16.116;2023-05-16T16:26:13;13.61;77.69
68648;SHT31;55632;51.962;16.116;2023-05-16T16:31:14;13.62;77.83
68648;SHT31;55632;51.962;16.116;2023-05-16T16:36:16;13.58;77.86
68648;SHT31;55632;51.962;16.116;2023-05-16T16:41:17;13.61;78.05
68648;SHT31;55632;51.962;16.116;2023-05-16T16:46:18;13.59;78.10
68648;SHT31;55632;51.962;16.116;2023-05-16T16:51:23;13.57;78.07
68648;SHT31;55632;51.962;16.116;2023-05-16T16:56:30;13.55;77.70
68648;SHT31;55632;51.962;16.116;2023-05-16T17:01:32;13.47;77.79
68648;SHT31;55632;51.962;16.116;2023-05-16T17:06:33;13.44;77.47
68648;SHT31;55632;51.962;16.116;2023-05-16T17:11:39;13.42;77.24
68648;SHT31;55632;51.962;16.116;2023-05-16T17:16:44;13.38;77.16
68648;SHT31;55632;51.962;16.116;2023-05-16T17:21:46;13.35;77.00
68648;SHT31;55632;51.962;16.116;2023-05-16T17:26:47;13.32;77.06
68648;SHT31;55632;51.962;16.116;2023-05-16T17:31:48;13.32;77.01
68648;SHT31;55632;51.962;16.116;2023-05-16T17:36:49;13.31;77.00
68648;SHT31;55632;51.962;16.116;2023-05-16T17:41:50;13.30;76.83
68648;SHT31;55632;51.962;16.116;2023-05-16T17:46:59;13.25;76.73
68648;SHT31;55632;51.962;16.116;2023-05-16T17:52:00;13.23;76.67
68648;SHT31;55632;51.962;16.116;2023-05-16T17:57:02;13.17;76.40
68648;SHT31;55632;51.962;16.116;2023-05-16T18:02:06;13.10;76.30
68648;SHT31;55632;51.962;16.116;2023-05-16T18:07:09;13.07;76.23
68648;SHT31;55632;51.962;16.116;2023-05-16T18:12:12;13.04;76.31
68648;SHT31;55632;51.962;16.116;2023-05-16T18:17:15;13.00;76.19
68648;SHT31;55632;51.962;16.116;2023-05-16T18:22:16;12.99;76.14
68648;SHT31;55632;51.962;16.116;2023-05-16T18:27:17;12.95;76.13
68648;SHT31;55632;51.962;16.116;2023-05-16T18:32:19;12.93;76.24
68648;SHT31;55632;51.962;16.116;2023-05-16T18:37:20;12.90;76.35
68648;SHT31;55632;51.962;16.116;2023-05-16T18:42:22;12.90;76.44
68648;SHT31;55632;51.962;16.116;2023-05-16T18:47:25;12.88;76.50
68648;SHT31;55632;51.962;16.116;2023-05-16T18:52:25;12.82;76.54
68648;SHT31;55632;51.962;16.116;2023-05-16T18:57:26;12.83;76.71
68648;SHT31;55632;51.962;16.116;2023-05-16T19:02:29;12.82;76.99
68648;SHT31;55632;51.962;16.116;2023-05-16T19:07:30;12.78;77.17
68648;SHT31;55632;51.962;16.116;2023-05-16T19:12:31;12.76;77.36
68648;SHT31;55632;51.962;16.116;2023-05-16T19:17:32;12.73;77.45
68648;SHT31;55632;51.962;16.116;2023-05-16T19:22:32;12.72;77.50
68648;SHT31;55632;51.962;16.116;2023-05-16T19:27:34;12.66;77.58
68648;SHT31;55632;51.962;16.116;2023-05-16T19:32:35;12.65;77.81
68648;SHT31;55632;51.962;16.116;2023-05-16T19:37:36;12.63;77.96
68648;SHT31;55632;51.962;16.116;2023-05-16T19:42:37;12.56;78.09
68648;SHT31;55632;51.962;16.116;2023-05-16T19:47:42;12.51;78.18
68648;SHT31;55632;51.962;16.116;2023-05-16T19:52:46;12.41;78.34
68648;SHT31;55632;51.962;16.116;2023-05-16T19:57:47;12.30;78.56
68648;SHT31;55632;51.962;16.116;2023-05-16T20:02:52;12.23;78.83
68648;SHT31;55632;51.962;16.116;2023-05-16T20:07:53;12.17;79.09
68648;SHT31;55632;51.962;16.116;2023-05-16T20:12:55;12.13;79.27
68648;SHT31;55632;51.962;16.116;2023-05-16T20:17:56;12.10;79.47
68648;SHT31;55632;51.962;16.116;2023-05-16T20:22:57;12.04;79.62
68648;SHT31;55632;51.962;16.116;2023-05-16T20:27:58;11.97;79.85
68648;SHT31;55632;51.962;16.116;2023-05-16T20:32:59;11.92;80.03
68648;SHT31;55632;51.962;16.116;2023-05-16T20:38:00;11.85;80.29
68648;SHT31;55632;51.962;16.116;2023-05-16T20:43:01;11.83;80.52
68648;SHT31;55632;51.962;16.116;2023-05-16T20:48:07;11.79;80.67
68648;SHT31;55632;51.962;16.116;2023-05-16T20:53:10;11.79;80.89
68648;SHT31;55632;51.962;16.116;2023-05-16T20:58:14;11.75;81.05
68648;SHT31;55632;51.962;16.116;2023-05-16T21:03:16;11.71;81.11
68648;SHT31;55632;51.962;16.116;2023-05-16T21:08:18;11.71;81.34
68648;SHT31;55632;51.962;16.116;2023-05-16T21:13:19;11.69;81.44
68648;SHT31;55632;51.962;16.116;2023-05-16T21:18:20;11.65;81.50
68648;SHT31;55632;51.962;16.116;2023-05-16T21:23:21;11.66;81.61
68648;SHT31;55632;51.962;16.116;2023-05-16T21:28:21;11.59;81.67
68648;SHT31;55632;51.962;16.116;2023-05-16T21:33:22;11.57;81.75
68648;SHT31;55632;51.962;16.116;2023-05-16T21:38:23;11.52;81.78
68648;SHT31;55632;51.962;16.116;2023-05-16T21:43:24;11.48;81.89
68648;SHT31;55632;51.962;16.116;2023-05-16T21:48:28;11.44;82.07
68648;SHT31;55632;51.962;16.116;2023-05-16T21:53:30;11.41;82.14
68648;SHT31;55632;51.962;16.116;2023-05-16T21:58:33;11.38;82.23
68648;SHT31;55632;51.962;16.116;2023-05-16T22:03:37;11.38;82.25
68648;SHT31;55632;51.962;16.116;2023-05-16T22:08:37;11.31;82.31
68648;SHT31;55632;51.962;16.116;2023-05-16T22:13:38;11.30;82.35
68648;SHT31;55632;51.962;16.116;2023-05-16T22:18:39;11.26;82.40
68648;SHT31;55632;51.962;16.116;2023-05-16T22:23:40;11.19;82.42
68648;SHT31;55632;51.962;16.116;2023-05-16T22:28:41;11.12;82.46
68648;SHT31;55632;51.962;16.116;2023-05-16T22:33:42;11.06;82.55
68648;SHT31;55632;51.962;16.116;2023-05-16T22:38:43;10.97;82.62
68648;SHT31;55632;51.962;16.116;2023-05-16T22:43:44;10.96;82.80
68648;SHT31;55632;51.962;16.116;2023-05-16T22:48:45;10.92;82.92
68648;SHT31;55632;51.962;16.116;2023-05-16T22:53:46;10.92;82.98
68648;SHT31;55632;51.962;16.116;2023-05-16T22:58:47;10.95;83.08
68648;SHT31;55632;51.962;16.116;2023-05-16T23:03:48;10.93;83.09
68648;SHT31;55632;51.962;16.116;2023-05-16T23:08:49;10.92;83.13
68648;SHT31;55632;51.962;16.116;2023-05-16T23:13:50;10.86;83.15
68648;SHT31;55632;51.962;16.116;2023-05-16T23:18:51;10.80;83.08
68648;SHT31;55632;51.962;16.116;2023-05-16T23:23:54;10.75;83.07
68648;SHT31;55632;51.962;16.116;2023-05-16T23:28:55;10.67;83.10
68648;SHT31;55632;51.962;16.116;2023-05-16T23:33:56;10.62;83.12
68648;SHT31;55632;51.962;16.116;2023-05-16T23:38:56;10.57;83.11
68648;SHT31;55632;51.962;16.116;2023-05-16T23:43:57;10.51;83.08
68648;SHT31;55632;51.962;16.116;2023-05-16T23:48:58;10.45;83.12
68648;SHT31;55632;51.962;16.116;2023-05-16T23:54:02;10.40;83.17
68648;SHT31;55632;51.962;16.116;2023-05-16T23:59:03;10.37;83.14
